createdAt,value
2022-09-04T00:03:04.248Z,9.66
2022-09-04T00:06:11.541Z,9.71
2022-09-04T00:09:28.703Z,9.75
2022-09-04T00:12:35.221Z,9.75
2022-09-04T00:15:42.822Z,9.76
2022-09-04T00:18:47.161Z,9.79
2022-09-04T00:21:53.598Z,9.83
2022-09-04T00:25:18.330Z,9.83
2022-09-04T00:28:37.561Z,9.79
2022-09-04T00:31:44.789Z,9.76
2022-09-04T00:34:46.681Z,9.75
2022-09-04T00:38:03.767Z,9.72
2022-09-04T00:41:31.239Z,9.69
2022-09-04T00:45:02.254Z,9.63
2022-09-04T00:48:22.235Z,9.57
2022-09-04T00:51:43.473Z,9.50
2022-09-04T00:55:11.332Z,9.45
2022-09-04T00:58:31.490Z,9.41
2022-09-04T01:01:33.435Z,9.38
2022-09-04T01:04:44.075Z,9.33
2022-09-04T01:08:27.881Z,9.27
2022-09-04T01:11:29.824Z,9.19
2022-09-04T01:14:38.476Z,9.15
2022-09-04T01:18:02.520Z,9.10
2022-09-04T01:21:11.146Z,9.06
2022-09-04T01:24:44.248Z,9.03
2022-09-04T01:28:13.548Z,8.98
2022-09-04T01:32:03.613Z,8.94
2022-09-04T01:35:53.004Z,8.89
2022-09-04T01:38:59.237Z,8.85
2022-09-04T01:42:12.502Z,8.81
2022-09-04T01:45:24.555Z,8.79
2022-09-04T01:48:45.633Z,8.78
2022-09-04T01:52:14.818Z,8.80
2022-09-04T01:55:27.040Z,8.88
2022-09-04T01:58:35.506Z,8.94
2022-09-04T02:02:22.268Z,8.99
2022-09-04T02:05:36.481Z,9.02
2022-09-04T02:08:55.471Z,9.03
2022-09-04T02:12:09.293Z,9.02
2022-09-04T02:15:43.256Z,9.00
2022-09-04T02:18:48.016Z,8.99
2022-09-04T02:22:12.625Z,8.99
2022-09-04T02:25:26.660Z,9.01
2022-09-04T02:28:50.312Z,9.03
2022-09-04T02:32:05.291Z,9.03
2022-09-04T02:35:27.332Z,9.02
2022-09-04T02:38:37.349Z,9.05
2022-09-04T02:42:04.528Z,9.09
2022-09-04T02:45:28.037Z,9.11
2022-09-04T02:48:45.118Z,9.12
2022-09-04T02:52:05.656Z,9.06
2022-09-04T02:55:44.788Z,9.03
2022-09-04T02:59:10.082Z,9.01
2022-09-04T03:02:21.342Z,8.97
2022-09-04T03:05:26.655Z,8.94
2022-09-04T03:08:43.679Z,8.91
2022-09-04T03:11:59.740Z,8.89
2022-09-04T03:15:04.835Z,8.86
2022-09-04T03:18:21.287Z,8.83
2022-09-04T03:21:35.569Z,8.81
2022-09-04T03:24:56.151Z,8.79
2022-09-04T03:27:57.927Z,8.77
2022-09-04T03:31:09.938Z,8.75
2022-09-04T03:34:34.669Z,8.70
2022-09-04T03:38:13.035Z,8.65
2022-09-04T03:41:36.331Z,8.61
2022-09-04T03:45:04.000Z,8.60
2022-09-04T03:48:19.041Z,8.59
2022-09-04T03:51:47.339Z,8.59
2022-09-04T03:55:09.865Z,8.60
2022-09-04T03:58:22.827Z,8.60
2022-09-04T04:01:25.258Z,8.58
2022-09-04T04:05:00.385Z,8.55
2022-09-04T04:08:37.815Z,8.52
2022-09-04T04:12:13.598Z,8.51
2022-09-04T04:15:37.229Z,8.50
2022-09-04T04:18:56.127Z,8.53
2022-09-04T04:22:26.285Z,8.54
2022-09-04T04:25:27.966Z,8.56
2022-09-04T04:28:42.215Z,8.56
2022-09-04T04:32:09.590Z,8.54
2022-09-04T04:35:30.538Z,8.52
2022-09-04T04:38:47.794Z,8.50
2022-09-04T04:42:06.277Z,8.53
2022-09-04T04:45:31.034Z,8.60
2022-09-04T04:49:07.467Z,8.71
2022-09-04T04:52:19.258Z,8.84
2022-09-04T04:55:38.668Z,8.96
2022-09-04T04:59:08.516Z,9.08
2022-09-04T05:02:31.169Z,9.25
2022-09-04T05:05:55.310Z,9.45
2022-09-04T05:09:06.092Z,9.64
2022-09-04T05:12:17.525Z,9.78
2022-09-04T05:15:25.137Z,9.91
2022-09-04T05:19:04.733Z,10.25
2022-09-04T05:22:34.680Z,10.76
2022-09-04T05:25:58.781Z,11.27
2022-09-04T05:29:51.569Z,11.75
2022-09-04T05:32:59.106Z,12.16
2022-09-04T05:36:16.748Z,12.67
2022-09-04T05:39:33.051Z,13.11
2022-09-04T05:43:11.148Z,13.41
2022-09-04T05:46:37.895Z,13.52
2022-09-04T05:50:37.086Z,13.47
2022-09-04T05:54:13.285Z,13.92
2022-09-04T05:57:17.852Z,14.23
2022-09-04T06:00:20.170Z,14.44
2022-09-04T06:03:45.995Z,14.48
2022-09-04T06:06:50.696Z,14.63
2022-09-04T06:09:58.905Z,14.71
2022-09-04T06:13:25.508Z,14.65
2022-09-04T06:16:47.231Z,14.64
2022-09-04T06:20:04.823Z,14.60
2022-09-04T06:23:24.843Z,14.56
2022-09-04T06:26:40.711Z,14.81
2022-09-04T06:30:00.670Z,15.05
2022-09-04T06:33:17.330Z,15.45
2022-09-04T06:36:53.211Z,16.11
2022-09-04T06:40:03.219Z,16.52
2022-09-04T06:43:11.264Z,16.95
2022-09-04T06:46:19.264Z,16.48
2022-09-04T06:49:36.130Z,16.58
2022-09-04T06:52:53.220Z,17.19
2022-09-04T06:56:04.706Z,17.16
2022-09-04T06:59:21.787Z,17.09
2022-09-04T07:02:28.980Z,16.70
2022-09-04T07:05:54.581Z,16.70
2022-09-04T07:09:11.589Z,16.50
2022-09-04T07:12:22.510Z,16.23
2022-09-04T07:15:48.754Z,16.04
2022-09-04T07:19:21.687Z,15.78
2022-09-04T07:22:45.587Z,15.47
2022-09-04T07:26:15.654Z,15.30
2022-09-04T07:29:35.129Z,15.18
2022-09-04T07:32:43.409Z,15.06
2022-09-04T07:35:59.030Z,14.87
2022-09-04T07:39:44.025Z,14.73
2022-09-04T07:42:59.899Z,14.62
2022-09-04T07:46:18.743Z,14.53
2022-09-04T07:49:37.692Z,14.48
2022-09-04T07:52:54.602Z,14.43
2022-09-04T07:56:35.438Z,14.37
2022-09-04T07:59:59.482Z,14.33
2022-09-04T08:03:04.459Z,14.38
2022-09-04T08:06:30.149Z,14.41
2022-09-04T08:09:37.042Z,14.42
2022-09-04T08:13:08.941Z,14.46
2022-09-04T08:16:20.474Z,14.63
2022-09-04T08:19:50.101Z,14.73
2022-09-04T08:22:55.641Z,14.95
2022-09-04T08:26:14.663Z,15.12
2022-09-04T08:29:32.652Z,15.33
2022-09-04T08:32:55.349Z,15.51
2022-09-04T08:35:59.882Z,15.65
2022-09-04T08:39:09.604Z,15.77
2022-09-04T08:42:54.328Z,15.88
2022-09-04T08:46:28.791Z,16.02
2022-09-04T08:49:56.894Z,16.24
2022-09-04T08:53:13.735Z,16.48
2022-09-04T08:56:22.146Z,16.72
2022-09-04T08:59:51.975Z,16.99
2022-09-04T09:03:11.454Z,17.28
2022-09-04T09:06:13.623Z,17.47
2022-09-04T09:09:50.702Z,17.32
2022-09-04T09:13:16.801Z,17.44
2022-09-04T09:16:23.728Z,17.92
2022-09-04T09:19:40.910Z,18.38
2022-09-04T09:23:21.147Z,18.55
2022-09-04T09:26:29.280Z,19.00
2022-09-04T09:29:38.795Z,19.36
2022-09-04T09:33:35.341Z,19.46
2022-09-04T09:37:02.569Z,19.69
2022-09-04T09:40:16.989Z,19.82
2022-09-04T09:43:30.718Z,19.62
2022-09-04T09:46:58.369Z,19.51
2022-09-04T09:50:15.173Z,19.84
2022-09-04T09:53:46.448Z,19.82
2022-09-04T09:57:20.245Z,19.91
2022-09-04T10:00:55.218Z,20.00
2022-09-04T10:04:19.010Z,19.55
2022-09-04T10:07:42.635Z,19.34
2022-09-04T10:10:59.373Z,19.47
2022-09-04T10:14:39.182Z,19.62
2022-09-04T10:18:07.544Z,20.07
2022-09-04T10:21:46.468Z,20.81
2022-09-04T10:25:09.825Z,21.14
2022-09-04T10:28:34.628Z,22.02
2022-09-04T10:31:48.685Z,22.64
2022-09-04T10:35:25.484Z,23.32
2022-09-04T10:38:35.874Z,24.28
2022-09-04T10:42:11.796Z,24.38
2022-09-04T10:45:27.110Z,24.46
2022-09-04T10:48:48.263Z,24.20
2022-09-04T10:52:41.787Z,24.04
2022-09-04T10:55:47.955Z,24.33
2022-09-04T10:59:01.261Z,24.09
2022-09-04T11:02:41.146Z,24.22
2022-09-04T11:05:52.458Z,24.75
2022-09-04T11:09:11.488Z,24.93
2022-09-04T11:12:38.203Z,25.16
2022-09-04T11:16:16.923Z,25.59
2022-09-04T11:19:34.476Z,25.44
2022-09-04T11:23:01.293Z,25.59
2022-09-04T11:26:08.327Z,26.34
2022-09-04T11:29:22.526Z,26.44
2022-09-04T11:32:52.379Z,26.45
2022-09-04T11:36:19.186Z,26.74
2022-09-04T11:39:39.274Z,26.62
2022-09-04T11:42:50.336Z,26.84
2022-09-04T11:46:05.651Z,26.57
2022-09-04T11:49:28.257Z,26.84
2022-09-04T11:52:47.238Z,27.69
2022-09-04T11:56:14.008Z,27.85
2022-09-04T11:59:40.923Z,28.19
2022-09-04T12:03:04.586Z,28.12
2022-09-04T12:06:13.774Z,28.13
2022-09-04T12:09:36.293Z,28.03
2022-09-04T12:12:47.082Z,27.72
2022-09-04T12:16:07.293Z,27.08
2022-09-04T12:19:50.476Z,26.73
2022-09-04T12:23:14.154Z,26.35
2022-09-04T12:26:51.120Z,26.06
2022-09-04T12:30:15.101Z,25.75
2022-09-04T12:33:35.415Z,25.44
2022-09-04T12:37:02.346Z,25.43
2022-09-04T12:40:29.383Z,25.39
2022-09-04T12:43:41.882Z,25.21
2022-09-04T12:46:50.366Z,24.92
2022-09-04T12:50:16.216Z,24.73
2022-09-04T12:53:27.658Z,24.25
2022-09-04T12:56:32.216Z,24.21
2022-09-04T12:59:49.710Z,24.49
2022-09-04T13:03:17.494Z,24.98
2022-09-04T13:06:48.225Z,24.94
2022-09-04T13:10:04.106Z,24.71
2022-09-04T13:13:08.516Z,24.42
2022-09-04T13:16:27.552Z,24.12
2022-09-04T13:19:50.095Z,23.97
2022-09-04T13:23:17.758Z,24.02
2022-09-04T13:26:44.191Z,24.32
2022-09-04T13:30:02.845Z,24.82
2022-09-04T13:33:12.411Z,25.10
2022-09-04T13:36:24.831Z,25.13
2022-09-04T13:39:39.074Z,24.97
2022-09-04T13:42:54.426Z,24.39
2022-09-04T13:46:03.382Z,23.80
2022-09-04T13:49:16.470Z,23.66
2022-09-04T13:52:24.563Z,23.88
2022-09-04T13:55:38.927Z,24.08
2022-09-04T13:58:48.607Z,23.95
2022-09-04T14:01:54.888Z,23.84
2022-09-04T14:05:14.355Z,23.76
2022-09-04T14:08:17.918Z,23.65
2022-09-04T14:11:50.861Z,23.78
2022-09-04T14:15:05.703Z,24.15
2022-09-04T14:18:29.704Z,24.18
2022-09-04T14:21:47.430Z,24.23
2022-09-04T14:25:01.328Z,24.35
2022-09-04T14:28:20.762Z,24.53
2022-09-04T14:31:38.060Z,24.44
2022-09-04T14:34:57.286Z,24.21
2022-09-04T14:38:19.333Z,23.92
2022-09-04T14:41:36.143Z,23.62
2022-09-04T14:44:56.641Z,23.14
2022-09-04T14:48:03.691Z,22.82
2022-09-04T14:51:35.995Z,22.68
2022-09-04T14:54:40.264Z,22.60
2022-09-04T14:57:59.532Z,22.51
2022-09-04T15:01:07.205Z,22.44
2022-09-04T15:04:22.775Z,22.36
2022-09-04T15:07:49.663Z,22.29
2022-09-04T15:10:53.883Z,22.13
2022-09-04T15:14:05.273Z,21.80
2022-09-04T15:17:14.802Z,21.61
2022-09-04T15:20:22.713Z,21.49
2022-09-04T15:23:34.217Z,21.40
2022-09-04T15:26:46.266Z,21.29
2022-09-04T15:29:48.539Z,21.19
2022-09-04T15:33:05.582Z,21.09
2022-09-04T15:36:10.984Z,21.01
2022-09-04T15:39:25.710Z,20.93
2022-09-04T15:42:53.784Z,20.86
2022-09-04T15:46:03.634Z,20.74
2022-09-04T15:49:36.718Z,20.57
2022-09-04T15:52:45.090Z,20.42
2022-09-04T15:55:48.573Z,20.30
2022-09-04T15:59:12.237Z,20.19
2022-09-04T16:02:25.275Z,20.07
2022-09-04T16:05:59.842Z,19.97
2022-09-04T16:09:09.833Z,19.85
2022-09-04T16:12:18.054Z,19.68
2022-09-04T16:15:37.433Z,19.40
2022-09-04T16:18:43.679Z,19.20
2022-09-04T16:21:58.502Z,19.09
2022-09-04T16:25:10.403Z,18.99
2022-09-04T16:28:22.805Z,18.84
2022-09-04T16:31:34.927Z,18.66
2022-09-04T16:34:43.673Z,18.53
2022-09-04T16:37:52.826Z,18.45
2022-09-04T16:41:00.390Z,18.40
2022-09-04T16:44:15.180Z,18.35
2022-09-04T16:47:23.696Z,18.27
2022-09-04T16:50:27.454Z,18.19
2022-09-04T16:53:29.416Z,18.09
2022-09-04T16:56:45.611Z,18.00
2022-09-04T16:59:53.363Z,17.92
2022-09-04T17:03:00.790Z,17.87
2022-09-04T17:06:09.366Z,17.84
2022-09-04T17:09:54.697Z,17.78
2022-09-04T17:13:01.552Z,17.73
2022-09-04T17:16:09.675Z,17.69
2022-09-04T17:19:14.070Z,17.62
2022-09-04T17:28:55.846Z,17.57
2022-09-04T17:29:04.611Z,17.47
2022-09-04T17:30:02.352Z,17.37
2022-09-04T17:38:26.950Z,17.27
2022-09-04T17:40:53.994Z,17.19
2022-09-04T17:40:54.608Z,17.22
2022-09-04T17:44:02.271Z,17.14
2022-09-04T17:47:41.602Z,17.11
2022-09-04T17:50:52.131Z,17.02
2022-09-04T17:53:57.441Z,16.95
2022-09-04T17:57:14.220Z,16.92
2022-09-04T18:00:25.000Z,16.92
2022-09-04T18:03:41.258Z,16.94
2022-09-04T18:08:07.865Z,16.94
2022-09-04T18:11:13.927Z,16.93
2022-09-04T18:14:32.002Z,16.89
2022-09-04T18:17:47.924Z,16.81
2022-09-04T18:20:55.421Z,16.74
2022-09-04T18:23:59.804Z,16.73
2022-09-04T18:27:08.481Z,16.69
2022-09-04T18:34:48.805Z,16.65
2022-09-04T18:37:26.560Z,16.60
2022-09-04T18:37:47.425Z,16.55
2022-09-04T18:43:01.993Z,16.45
2022-09-04T18:50:21.097Z,16.39
2022-09-04T18:50:29.499Z,16.35
2022-09-04T18:51:31.880Z,16.32
2022-09-04T18:55:08.802Z,16.28
2022-09-04T18:58:10.503Z,16.29
2022-09-04T19:01:26.732Z,16.32
2022-09-04T19:04:38.256Z,16.34
2022-09-04T19:07:48.170Z,16.37
2022-09-04T19:10:54.158Z,16.38
2022-09-04T19:14:10.876Z,16.39
2022-09-04T19:17:27.211Z,16.39
2022-09-04T19:20:37.635Z,16.39
2022-09-04T19:24:15.594Z,16.39
2022-09-04T19:27:40.283Z,16.39
2022-09-04T19:30:54.125Z,16.39
2022-09-04T19:34:42.480Z,16.38
2022-09-04T19:40:24.726Z,16.38
2022-09-04T19:46:02.151Z,16.35
2022-09-04T19:46:07.454Z,16.33
2022-09-04T19:48:21.541Z,16.33
2022-09-04T19:53:24.359Z,16.30
2022-09-04T19:55:24.947Z,16.23
2022-09-04T19:58:45.906Z,16.16
2022-09-04T20:01:51.131Z,16.11
2022-09-04T20:04:58.313Z,16.09
2022-09-04T20:08:18.782Z,16.09
2022-09-04T20:11:51.538Z,16.08
2022-09-04T20:14:58.853Z,16.00
2022-09-04T20:18:09.817Z,15.93
2022-09-04T20:21:20.279Z,15.89
2022-09-04T20:25:01.448Z,15.86
2022-09-04T20:28:20.460Z,15.87
2022-09-04T20:31:35.370Z,15.86
2022-09-04T20:34:43.629Z,15.86
2022-09-04T20:37:53.859Z,15.83
2022-09-04T20:41:20.744Z,15.75
2022-09-04T20:44:55.270Z,15.68
2022-09-04T20:52:51.289Z,15.67
2022-09-04T20:52:57.775Z,15.68
2022-09-04T20:55:33.861Z,15.68
2022-09-04T21:03:07.646Z,15.67
2022-09-04T21:03:23.237Z,15.63
2022-09-04T21:06:10.440Z,15.62
2022-09-04T21:09:30.781Z,15.58
2022-09-04T21:12:37.925Z,15.48
2022-09-04T21:15:45.891Z,15.39
2022-09-04T21:19:27.791Z,15.29
2022-09-04T21:22:36.024Z,15.22
2022-09-04T21:25:51.646Z,15.16
2022-09-04T21:29:14.629Z,15.09
2022-09-04T21:32:29.219Z,14.99
2022-09-04T21:35:36.172Z,14.85
2022-09-04T21:39:09.414Z,14.71
2022-09-04T21:42:42.251Z,14.60
2022-09-04T21:46:13.053Z,14.50
2022-09-04T21:49:31.962Z,14.38
2022-09-04T21:53:16.909Z,14.27
2022-09-04T21:57:13.498Z,14.15
2022-09-04T22:02:41.529Z,14.00
2022-09-04T22:03:33.974Z,13.85
2022-09-04T22:09:00.223Z,13.73
2022-09-04T22:13:34.893Z,13.63
2022-09-04T22:14:03.127Z,13.53
2022-09-04T22:17:05.329Z,13.44
2022-09-04T22:20:29.706Z,13.34
2022-09-04T22:24:15.211Z,13.24
2022-09-04T22:28:04.548Z,13.16
2022-09-04T22:31:15.308Z,13.06
2022-09-04T22:34:38.687Z,13.01
2022-09-04T22:38:17.787Z,12.94
2022-09-04T22:41:41.643Z,12.74
2022-09-04T22:44:57.175Z,12.70
2022-09-04T22:49:12.939Z,12.66
2022-09-04T22:52:26.955Z,12.54
2022-09-04T22:56:00.639Z,12.49
2022-09-04T22:59:44.121Z,12.43
2022-09-04T23:03:12.030Z,12.39
2022-09-04T23:11:42.026Z,12.22
2022-09-04T23:13:50.736Z,12.16
2022-09-04T23:14:18.838Z,12.07
2022-09-04T23:17:30.340Z,12.02
2022-09-04T23:26:33.254Z,11.97
2022-09-04T23:26:53.142Z,11.86
2022-09-04T23:28:30.686Z,11.74
2022-09-04T23:32:09.626Z,11.67
2022-09-04T23:35:53.575Z,11.61
2022-09-04T23:39:37.128Z,11.59
2022-09-04T23:43:14.059Z,11.55
2022-09-04T23:46:47.983Z,11.37
2022-09-04T23:50:31.384Z,11.31
2022-09-04T23:53:55.741Z,11.32
2022-09-04T23:57:27.270Z,11.31
